createdAt,value
2019-05-22T00:02:16.099Z,8.28
2019-05-22T00:04:50.931Z,8.33
2019-05-22T00:07:24.436Z,7.15
2019-05-22T00:09:57.910Z,6.97
2019-05-22T00:12:45.682Z,7.45
2019-05-22T00:15:03.984Z,7.78
2019-05-22T00:17:36.301Z,12.43
2019-05-22T00:20:08.144Z,12.03
2019-05-22T00:22:41.881Z,17.07
2019-05-22T00:25:15.792Z,11.55
2019-05-22T00:27:49.183Z,16.73
2019-05-22T00:30:24.699Z,10.10
2019-05-22T00:32:56.919Z,12.80
2019-05-22T00:35:29.630Z,11.95
2019-05-22T00:38:03.869Z,18.62
2019-05-22T00:40:37.859Z,12.35
2019-05-22T00:43:13.971Z,14.28
2019-05-22T00:45:45.622Z,61.63
2019-05-22T00:48:22.498Z,105.87
2019-05-22T00:50:58.735Z,44.23
2019-05-22T00:53:36.155Z,18.87
2019-05-22T00:56:12.573Z,27.52
2019-05-22T00:58:45.079Z,27.67
2019-05-22T01:01:20.048Z,24.75
2019-05-22T01:03:52.141Z,18.02
2019-05-22T01:06:24.575Z,22.13
2019-05-22T01:08:58.274Z,23.07
2019-05-22T01:11:32.058Z,39.45
2019-05-22T01:14:05.842Z,23.55
2019-05-22T01:16:39.072Z,18.25
2019-05-22T01:19:13.614Z,23.32
2019-05-22T01:21:50.725Z,20.33
2019-05-22T01:24:23.118Z,10.68
2019-05-22T01:26:58.779Z,12.47
2019-05-22T01:29:33.178Z,10.53
2019-05-22T01:32:05.931Z,14.80
2019-05-22T01:34:39.342Z,16.62
2019-05-22T01:37:12.470Z,6.50
2019-05-22T01:39:50.963Z,8.28
2019-05-22T01:42:25.205Z,8.03
2019-05-22T01:45:04.140Z,9.10
2019-05-22T01:47:35.179Z,10.28
2019-05-22T01:50:08.826Z,9.30
2019-05-22T01:52:44.228Z,11.22
2019-05-22T01:57:48.413Z,8.43
2019-05-22T02:00:20.869Z,9.50
2019-05-22T02:02:54.528Z,7.10
2019-05-22T02:05:28.188Z,9.80
2019-05-22T02:08:00.505Z,8.30
2019-05-22T02:10:35.536Z,11.57
2019-05-22T02:13:09.204Z,12.65
2019-05-22T02:15:41.727Z,10.72
2019-05-22T02:18:32.439Z,10.90
2019-05-22T02:21:08.747Z,10.50
2019-05-22T02:23:41.448Z,11.12
2019-05-22T02:26:15.484Z,11.10
2019-05-22T02:28:47.498Z,12.68
2019-05-22T02:31:20.487Z,11.93
2019-05-22T02:34:11.099Z,14.98
2019-05-22T02:36:44.929Z,13.62
2019-05-22T02:39:19.276Z,18.35
2019-05-22T02:42:03.414Z,16.75
2019-05-22T02:44:34.875Z,13.13
2019-05-22T02:47:19.091Z,11.18
2019-05-22T02:49:44.121Z,9.65
2019-05-22T02:52:20.440Z,8.13
2019-05-22T02:54:53.083Z,10.82
2019-05-22T02:57:27.934Z,12.45
2019-05-22T03:00:01.325Z,14.53
2019-05-22T03:02:34.868Z,10.48
2019-05-22T03:05:11.638Z,7.08
2019-05-22T03:07:44.442Z,15.65
2019-05-22T03:10:18.649Z,8.53
2019-05-22T03:12:52.688Z,9.93
2019-05-22T03:15:27.017Z,8.80
2019-05-22T03:18:01.990Z,8.35
2019-05-22T03:20:35.516Z,11.97
2019-05-22T03:23:43.182Z,10.03
2019-05-22T03:26:16.448Z,11.43
2019-05-22T03:28:48.477Z,8.38
2019-05-22T03:31:23.843Z,14.20
2019-05-22T03:36:29.521Z,7.83
2019-05-22T03:39:00.863Z,7.33
2019-05-22T03:41:34.630Z,8.20
2019-05-22T03:44:07.091Z,6.58
2019-05-22T03:46:42.053Z,10.28
2019-05-22T03:49:29.643Z,9.00
2019-05-22T03:51:53.614Z,8.68
2019-05-22T03:54:26.592Z,7.30
2019-05-22T03:57:03.498Z,9.30
2019-05-22T03:59:35.129Z,7.67
2019-05-22T04:02:08.301Z,6.95
2019-05-22T04:04:42.078Z,5.55
2019-05-22T04:07:32.380Z,6.83
2019-05-22T04:10:06.640Z,7.12
2019-05-22T04:12:45.772Z,8.15
2019-05-22T04:15:20.407Z,5.55
2019-05-22T04:17:59.903Z,7.17
2019-05-22T04:20:31.767Z,7.45
2019-05-22T04:23:06.770Z,6.30
2019-05-22T04:25:39.061Z,8.38
2019-05-22T04:28:13.860Z,7.22
2019-05-22T04:30:46.828Z,10.30
2019-05-22T04:33:20.675Z,8.33
2019-05-22T04:35:53.086Z,5.78
2019-05-22T04:38:25.923Z,6.10
2019-05-22T04:40:59.407Z,5.67
2019-05-22T04:43:33.854Z,6.92
2019-05-22T04:46:11.846Z,8.10
2019-05-22T04:48:50.125Z,6.25
2019-05-22T04:51:42.527Z,5.20
2019-05-22T04:54:16.303Z,6.45
2019-05-22T04:56:50.470Z,9.13
2019-05-22T04:59:24.235Z,6.42
2019-05-22T05:01:57.576Z,6.40
2019-05-22T05:04:30.767Z,7.83
2019-05-22T05:07:05.098Z,6.42
2019-05-22T05:09:37.438Z,8.58
2019-05-22T05:12:12.866Z,6.50
2019-05-22T05:14:46.174Z,10.13
2019-05-22T05:17:19.719Z,7.17
2019-05-22T05:19:51.521Z,6.50
2019-05-22T05:22:32.817Z,9.05
2019-05-22T05:25:05.538Z,7.67
2019-05-22T05:27:37.945Z,5.47
2019-05-22T05:30:11.327Z,8.45
2019-05-22T05:32:45.834Z,12.65
2019-05-22T05:35:19.121Z,8.43
2019-05-22T05:37:51.231Z,8.80
2019-05-22T05:40:28.200Z,5.20
2019-05-22T05:43:04.785Z,8.90
2019-05-22T05:45:38.399Z,7.80
2019-05-22T05:48:14.299Z,6.05
2019-05-22T05:51:05.384Z,6.45
2019-05-22T05:53:43.730Z,12.80
2019-05-22T05:56:21.350Z,10.08
2019-05-22T05:58:53.088Z,7.75
2019-05-22T06:01:43.768Z,6.75
2019-05-22T06:04:16.878Z,4.75
2019-05-22T06:06:53.533Z,5.72
2019-05-22T06:09:27.913Z,5.30
2019-05-22T06:12:05.741Z,4.67
2019-05-22T06:14:39.332Z,5.72
2019-05-22T06:17:31.014Z,8.65
2019-05-22T06:20:10.696Z,4.47
2019-05-22T06:22:46.434Z,5.15
2019-05-22T06:25:18.784Z,7.55
2019-05-22T06:27:52.216Z,5.65
2019-05-22T06:30:27.924Z,7.08
2019-05-22T06:33:20.181Z,7.15
2019-05-22T06:35:53.934Z,8.20
2019-05-22T06:38:29.306Z,6.03
2019-05-22T06:41:02.122Z,6.22
2019-05-22T06:43:41.622Z,6.35
2019-05-22T06:46:14.373Z,5.92
2019-05-22T06:48:49.454Z,7.70
2019-05-22T06:54:00.355Z,5.40
2019-05-22T06:56:32.733Z,5.40
2019-05-22T06:59:05.434Z,6.53
2019-05-22T07:01:38.903Z,5.80
2019-05-22T07:04:10.878Z,6.92
2019-05-22T07:06:43.750Z,5.45
2019-05-22T07:09:16.709Z,7.50
2019-05-22T07:11:49.334Z,5.67
2019-05-22T07:14:22.817Z,7.75
2019-05-22T07:16:57.089Z,8.35
2019-05-22T07:19:31.866Z,11.90
2019-05-22T07:22:05.644Z,6.33
2019-05-22T07:24:38.519Z,9.28
2019-05-22T07:27:29.084Z,7.33
2019-05-22T07:30:02.920Z,5.42
2019-05-22T07:32:37.375Z,6.17
2019-05-22T07:35:11.010Z,12.00
2019-05-22T07:37:45.906Z,9.93
2019-05-22T07:40:18.540Z,9.30
2019-05-22T07:42:51.372Z,5.28
2019-05-22T07:45:28.799Z,9.85
2019-05-22T07:48:01.959Z,6.87
2019-05-22T07:50:37.825Z,6.85
2019-05-22T07:53:11.910Z,6.12
2019-05-22T07:55:43.361Z,6.33
2019-05-22T07:58:20.554Z,6.47
2019-05-22T08:01:00.204Z,5.85
2019-05-22T08:03:35.984Z,5.58
2019-05-22T08:06:10.958Z,7.37
2019-05-22T08:11:17.476Z,5.78
2019-05-22T08:13:51.751Z,7.92
2019-05-22T08:16:26.969Z,6.17
2019-05-22T08:19:00.461Z,5.85
2019-05-22T08:21:34.859Z,6.72
2019-05-22T08:24:08.380Z,9.00
2019-05-22T08:26:53.720Z,8.83
2019-05-22T08:29:14.898Z,9.67
2019-05-22T08:31:47.869Z,5.45
2019-05-22T08:34:20.562Z,6.65
2019-05-22T08:36:53.539Z,11.45
2019-05-22T08:39:27.349Z,9.78
2019-05-22T08:42:00.584Z,8.65
2019-05-22T08:44:33.334Z,13.00
2019-05-22T08:47:06.121Z,16.42
2019-05-22T08:49:38.707Z,6.08
2019-05-22T08:52:23.011Z,5.67
2019-05-22T08:54:47.612Z,5.80
2019-05-22T08:57:21.123Z,5.83
2019-05-22T08:59:55.790Z,5.30
2019-05-22T09:02:27.404Z,6.95
2019-05-22T09:05:01.697Z,7.62
2019-05-22T09:07:35.637Z,6.62
2019-05-22T09:10:10.462Z,5.22
2019-05-22T09:15:16.735Z,11.22
2019-05-22T09:20:25.228Z,6.20
2019-05-22T09:22:57.819Z,7.80
2019-05-22T09:25:32.502Z,6.03
2019-05-22T09:28:06.741Z,7.90
2019-05-22T09:30:39.618Z,6.87
2019-05-22T09:33:14.051Z,7.50
2019-05-22T09:35:45.930Z,7.05
2019-05-22T09:38:17.643Z,9.10
2019-05-22T09:40:50.779Z,5.65
2019-05-22T09:43:23.818Z,8.95
2019-05-22T09:45:56.658Z,5.28
2019-05-22T09:48:30.850Z,6.83
2019-05-22T09:51:02.318Z,5.73
2019-05-22T09:53:34.222Z,5.53
2019-05-22T09:56:06.026Z,5.42
2019-05-22T09:58:40.346Z,8.10
2019-05-22T10:01:13.794Z,8.08
2019-05-22T10:03:47.453Z,7.53
2019-05-22T10:06:21.880Z,6.90
2019-05-22T10:08:54.576Z,7.28
2019-05-22T10:11:28.022Z,7.67
2019-05-22T10:14:02.275Z,6.00
2019-05-22T10:16:35.015Z,9.13
2019-05-22T10:19:07.582Z,6.37
2019-05-22T10:21:40.762Z,6.28
2019-05-22T10:24:13.506Z,7.40
2019-05-22T10:26:47.943Z,5.58
2019-05-22T10:29:25.211Z,5.92
2019-05-22T10:31:57.657Z,9.55
2019-05-22T10:34:31.516Z,10.05
2019-05-22T10:37:06.357Z,7.15
2019-05-22T10:42:13.077Z,8.70
2019-05-22T10:44:45.360Z,6.92
2019-05-22T10:47:18.829Z,18.00
2019-05-22T10:49:51.413Z,8.30
2019-05-22T10:52:24.737Z,13.93
2019-05-22T10:54:57.345Z,9.78
2019-05-22T10:57:30.357Z,9.78
2019-05-22T11:00:05.803Z,9.40
2019-05-22T11:02:38.470Z,11.22
2019-05-22T11:05:13.625Z,8.18
2019-05-22T11:07:46.447Z,8.65
2019-05-22T11:10:18.859Z,8.23
2019-05-22T11:12:54.013Z,14.07
2019-05-22T11:17:57.215Z,10.45
2019-05-22T11:20:31.434Z,10.50
2019-05-22T11:23:04.234Z,12.40
2019-05-22T11:25:39.140Z,8.50
2019-05-22T11:28:17.855Z,12.33
2019-05-22T11:30:55.218Z,10.45
2019-05-22T11:33:28.583Z,11.03
2019-05-22T11:36:01.495Z,16.95
2019-05-22T11:38:36.215Z,11.43
2019-05-22T11:41:12.353Z,12.45
2019-05-22T11:43:46.363Z,14.35
2019-05-22T11:46:19.801Z,12.68
2019-05-22T11:48:55.452Z,8.38
2019-05-22T11:51:28.206Z,11.85
2019-05-22T11:54:09.138Z,9.00
2019-05-22T11:56:35.062Z,12.20
2019-05-22T11:59:07.506Z,10.48
2019-05-22T12:01:42.712Z,12.63
2019-05-22T12:04:14.567Z,9.78
2019-05-22T12:06:53.814Z,10.05
2019-05-22T12:09:25.463Z,13.18
2019-05-22T12:11:59.357Z,12.47
2019-05-22T12:14:32.781Z,13.88
2019-05-22T12:17:04.438Z,14.23
2019-05-22T12:19:38.301Z,11.03
2019-05-22T12:22:11.413Z,16.02
2019-05-22T12:24:44.217Z,12.65
2019-05-22T12:27:17.180Z,12.98
2019-05-22T12:29:50.703Z,14.28
2019-05-22T12:32:25.205Z,10.70
2019-05-22T12:34:58.274Z,13.45
2019-05-22T12:37:29.851Z,11.08
2019-05-22T12:40:03.272Z,11.83
2019-05-22T12:42:35.770Z,10.15
2019-05-22T12:45:11.228Z,10.93
2019-05-22T12:47:45.450Z,13.45
2019-05-22T12:50:19.547Z,11.45
2019-05-22T12:52:53.929Z,11.50
2019-05-22T12:55:27.329Z,13.68
2019-05-22T12:58:00.583Z,14.33
2019-05-22T13:00:34.173Z,11.08
2019-05-22T13:03:08.090Z,11.25
2019-05-22T13:05:41.596Z,11.95
2019-05-22T13:08:15.688Z,11.83
2019-05-22T13:10:50.716Z,14.75
2019-05-22T13:15:56.339Z,12.58
2019-05-22T13:18:29.388Z,15.85
2019-05-22T13:21:03.185Z,13.05
2019-05-22T13:23:39.614Z,16.12
2019-05-22T13:26:13.252Z,15.28
2019-05-22T13:28:51.023Z,16.00
2019-05-22T13:31:23.727Z,14.03
2019-05-22T13:33:56.710Z,11.05
2019-05-22T13:36:29.595Z,16.50
2019-05-22T13:39:04.313Z,16.27
2019-05-22T13:41:40.896Z,14.53
2019-05-22T13:44:14.649Z,11.22
2019-05-22T13:46:48.766Z,13.28
2019-05-22T13:49:24.432Z,14.60
2019-05-22T13:52:01.667Z,15.75
2019-05-22T13:54:34.565Z,15.20
2019-05-22T13:57:07.341Z,17.42
2019-05-22T13:59:39.907Z,15.80
2019-05-22T14:02:12.694Z,13.60
2019-05-22T14:04:45.408Z,14.30
2019-05-22T14:07:18.354Z,15.70
2019-05-22T14:09:52.676Z,18.40
2019-05-22T14:12:25.478Z,13.80
2019-05-22T14:14:59.514Z,16.37
2019-05-22T14:17:36.955Z,12.23
2019-05-22T14:20:12.301Z,10.58
2019-05-22T14:22:46.403Z,13.65
2019-05-22T14:25:21.691Z,11.53
2019-05-22T14:27:53.497Z,11.10
2019-05-22T14:30:27.179Z,13.18
2019-05-22T14:33:04.166Z,10.05
2019-05-22T14:35:47.525Z,9.98
2019-05-22T14:38:12.368Z,12.00
2019-05-22T14:40:44.070Z,9.45
2019-05-22T14:43:18.496Z,12.85
2019-05-22T14:45:51.400Z,8.33
2019-05-22T14:48:27.152Z,12.10
2019-05-22T14:51:04.977Z,12.25
2019-05-22T14:53:40.172Z,9.23
